Time;durP1;ratioP1;P1;durP2;ratioP2;P2;SDS_P1;SDS_P2;PMS_P1;PMS_P2;Temp;Humidity;BMP_temperature;BMP_pressure;BME280_temperature;BME280_humidity;BME280_pressure;Samples;Min_cycle;Max_cycle;Signal;HPM_P1;HPM_P2
2021/05/09 00:00:19;;;;;;;5.80;3.70;;;13.40;99.90;;;;;;5027381;28;20066;-66
2021/05/09 00:02:44;;;;;;;7.50;4.20;;;13.30;99.90;;;;;;5026479;28;20037;-66
2021/05/09 00:05:11;;;;;;;7.45;3.30;;;13.30;99.90;;;;;;5025869;28;20045;-66
2021/05/09 00:07:38;;;;;;;7.05;3.35;;;13.30;99.90;;;;;;5024955;28;20038;-66
2021/05/09 00:10:06;;;;;;;9.35;4.88;;;13.30;99.90;;;;;;5025465;28;20476;-65
2021/05/09 00:12:31;;;;;;;8.20;3.92;;;13.30;99.90;;;;;;5025536;28;20034;-65
2021/05/09 00:14:57;;;;;;;5.35;3.72;;;13.30;99.90;;;;;;5026190;28;20411;-66
2021/05/09 00:17:27;;;;;;;6.70;3.90;;;13.30;99.90;;;;;;5024782;28;20045;-66
2021/05/09 00:19:53;;;;;;;4.65;3.95;;;13.20;99.90;;;;;;5026231;28;20049;-66
2021/05/09 00:22:19;;;;;;;4.38;3.97;;;13.30;99.90;;;;;;5023999;28;20096;-66
2021/05/09 00:24:44;;;;;;;5.88;4.05;;;13.20;99.90;;;;;;5024882;28;20073;-66
2021/05/09 00:27:31;;;;;;;8.60;4.65;;;13.20;99.90;;;;;;5024042;28;20164;-66
2021/05/09 00:29:56;;;;;;;4.75;3.60;;;13.10;99.90;;;;;;5024945;28;20136;-65
2021/05/09 00:32:22;;;;;;;5.93;3.63;;;13.00;99.90;;;;;;5024848;28;20120;-66
2021/05/09 00:34:48;;;;;;;7.07;4.07;;;13.00;99.90;;;;;;5024681;28;20403;-66
2021/05/09 00:37:13;;;;;;;6.45;4.35;;;12.90;99.90;;;;;;5022134;28;20038;-66
2021/05/09 00:39:39;;;;;;;5.28;4.22;;;12.90;99.90;;;;;;5024424;28;20045;-65
2021/05/09 00:42:06;;;;;;;6.10;4.10;;;12.80;99.90;;;;;;5024363;28;20029;-65
2021/05/09 00:44:33;;;;;;;5.85;3.90;;;12.70;99.90;;;;;;5026485;28;20495;-65
2021/05/09 00:47:05;;;;;;;6.47;3.63;;;12.70;99.90;;;;;;5022296;28;20093;-65
2021/05/09 00:49:30;;;;;;;9.15;5.43;;;12.70;99.90;;;;;;5026106;28;20454;-65
2021/05/09 00:51:58;;;;;;;6.55;4.03;;;12.60;99.90;;;;;;5022311;28;20243;-66
2021/05/09 00:54:26;;;;;;;6.68;3.75;;;12.60;99.90;;;;;;5023184;28;20041;-65
2021/05/09 00:56:54;;;;;;;5.43;4.18;;;12.50;99.90;;;;;;5017981;28;20050;-65
2021/05/09 00:59:20;;;;;;;7.60;3.90;;;12.50;99.90;;;;;;5022859;28;20140;-65
2021/05/09 01:01:48;;;;;;;7.65;3.90;;;12.50;99.90;;;;;;5024717;28;20033;-65
2021/05/09 01:04:16;;;;;;;6.47;4.10;;;12.40;99.90;;;;;;5038780;28;20045;-65
2021/05/09 01:06:44;;;;;;;4.95;3.95;;;12.40;99.90;;;;;;5026260;28;20068;-65
2021/05/09 01:09:12;;;;;;;7.32;4.10;;;12.40;99.90;;;;;;5024376;28;20049;-65
2021/05/09 01:11:38;;;;;;;5.50;3.88;;;12.40;99.90;;;;;;5026376;28;20042;-65
2021/05/09 01:14:05;;;;;;;6.03;3.80;;;12.30;99.90;;;;;;5026089;28;20064;-65
2021/05/09 01:16:35;;;;;;;5.32;3.85;;;12.40;99.90;;;;;;5023463;28;20044;-66
2021/05/09 01:19:03;;;;;;;8.00;4.00;;;12.30;99.90;;;;;;5027342;28;20041;-65
2021/05/09 01:21:29;;;;;;;8.13;3.83;;;12.40;99.90;;;;;;5023364;28;20518;-65
2021/05/09 01:23:55;;;;;;;7.22;4.65;;;12.40;99.90;;;;;;5025788;28;20038;-65
2021/05/09 01:26:20;;;;;;;8.88;3.85;;;12.30;99.90;;;;;;5019689;28;20037;-65
2021/05/09 01:28:46;;;;;;;5.68;4.00;;;12.40;99.90;;;;;;5023209;28;20061;-65
2021/05/09 01:31:12;;;;;;;7.20;3.78;;;12.30;99.90;;;;;;5023303;28;20041;-66
2021/05/09 01:33:40;;;;;;;7.78;3.85;;;12.30;99.90;;;;;;5024916;28;20077;-65
2021/05/09 01:36:06;;;;;;;4.18;3.78;;;12.20;99.90;;;;;;5024723;28;20073;-65
2021/05/09 01:38:32;;;;;;;8.57;4.25;;;12.20;99.90;;;;;;5023616;28;20131;-65
2021/05/09 01:40:57;;;;;;;13.65;4.50;;;12.20;99.90;;;;;;5023532;28;20033;-65
2021/05/09 01:43:23;;;;;;;5.70;3.97;;;12.30;99.90;;;;;;5024288;28;20114;-65
2021/05/09 01:45:49;;;;;;;11.15;4.35;;;12.20;99.90;;;;;;5023695;28;20065;-65
2021/05/09 01:48:14;;;;;;;7.97;4.72;;;12.20;99.90;;;;;;5023618;28;20034;-65
2021/05/09 01:50:40;;;;;;;6.05;4.18;;;12.20;99.90;;;;;;5024967;28;20094;-65
2021/05/09 01:53:06;;;;;;;8.00;5.07;;;12.20;99.90;;;;;;5022977;28;20046;-65
2021/05/09 01:55:32;;;;;;;9.52;4.95;;;12.20;99.90;;;;;;5022363;28;20029;-65
2021/05/09 01:57:58;;;;;;;7.40;4.25;;;12.20;99.90;;;;;;5024000;28;20068;-65
2021/05/09 02:00:24;;;;;;;5.38;4.53;;;12.20;99.90;;;;;;5022338;28;20099;-65
2021/05/09 02:02:50;;;;;;;6.50;4.45;;;12.10;99.90;;;;;;5022961;28;20060;-65
2021/05/09 02:05:17;;;;;;;6.82;4.38;;;12.00;99.90;;;;;;5021378;28;20041;-65
2021/05/09 02:08:03;;;;;;;9.80;5.10;;;12.10;99.90;;;;;;5021827;28;20058;-65
2021/05/09 02:10:30;;;;;;;5.47;4.07;;;12.20;99.90;;;;;;5022090;28;20488;-65
2021/05/09 02:12:57;;;;;;;5.85;4.65;;;12.10;99.90;;;;;;5023184;28;20045;-65
2021/05/09 02:15:22;;;;;;;6.47;4.53;;;12.10;99.90;;;;;;5021293;28;20033;-66
2021/05/09 02:17:48;;;;;;;7.75;5.93;;;12.10;99.90;;;;;;5021292;28;20128;-65
2021/05/09 02:20:14;;;;;;;9.90;4.70;;;12.10;99.90;;;;;;5020774;28;20175;-65
2021/05/09 02:22:40;;;;;;;8.30;5.05;;;12.10;99.90;;;;;;5018948;28;20046;-65
2021/05/09 02:25:07;;;;;;;7.47;4.70;;;12.20;99.90;;;;;;5023691;28;20065;-65
2021/05/09 02:27:33;;;;;;;8.80;4.60;;;12.20;99.90;;;;;;5026344;28;20044;-65
2021/05/09 02:30:00;;;;;;;6.85;5.22;;;12.10;99.90;;;;;;5026001;28;20661;-65
2021/05/09 02:32:28;;;;;;;6.88;5.05;;;12.00;99.90;;;;;;5028957;28;20369;-65
2021/05/09 02:34:56;;;;;;;6.07;4.75;;;12.00;99.90;;;;;;5028466;28;20041;-65
2021/05/09 02:37:21;;;;;;;10.15;5.38;;;12.00;99.90;;;;;;5031717;28;20049;-65
2021/05/09 02:39:47;;;;;;;6.10;5.30;;;12.00;99.90;;;;;;5030271;28;20972;-65
2021/05/09 02:42:13;;;;;;;6.25;4.35;;;11.90;99.90;;;;;;5030554;28;20033;-65
2021/05/09 02:44:38;;;;;;;7.97;5.85;;;11.90;99.90;;;;;;5030412;28;20557;-65
2021/05/09 02:47:04;;;;;;;5.55;4.32;;;11.90;99.90;;;;;;5030850;28;20067;-65
2021/05/09 02:49:30;;;;;;;7.35;4.57;;;11.90;99.90;;;;;;5028777;28;20060;-65
2021/05/09 02:51:56;;;;;;;7.95;4.78;;;11.90;99.90;;;;;;5031529;28;20562;-65
2021/05/09 02:54:22;;;;;;;6.43;4.95;;;11.90;99.90;;;;;;5029585;28;20041;-65
2021/05/09 02:56:47;;;;;;;5.40;4.25;;;11.90;99.90;;;;;;5029523;28;20544;-64
2021/05/09 02:59:13;;;;;;;10.30;3.95;;;11.90;99.90;;;;;;5030996;28;20048;-65
2021/05/09 03:01:39;;;;;;;7.43;4.28;;;11.90;99.90;;;;;;5030370;28;20042;-65
2021/05/09 03:04:05;;;;;;;7.03;3.85;;;11.90;99.90;;;;;;5029554;28;20514;-65
2021/05/09 03:06:30;;;;;;;7.53;4.30;;;11.80;99.90;;;;;;5029828;28;20384;-65
2021/05/09 03:08:56;;;;;;;8.13;4.68;;;11.90;99.90;;;;;;5030745;28;20108;-65
2021/05/09 03:11:27;;;;;;;7.28;3.95;;;11.80;99.90;;;;;;5030174;28;20099;-65
2021/05/09 03:13:53;;;;;;;10.40;5.25;;;11.80;99.90;;;;;;5030927;28;20057;-65
2021/05/09 03:16:19;;;;;;;6.80;4.28;;;11.90;99.90;;;;;;5028991;28;20061;-65
2021/05/09 03:18:44;;;;;;;5.18;3.50;;;11.90;99.90;;;;;;5029950;28;20631;-65
2021/05/09 03:21:10;;;;;;;9.63;4.55;;;12.10;99.90;;;;;;5030379;28;20127;-65
2021/05/09 03:23:36;;;;;;;8.23;4.43;;;12.10;99.90;;;;;;5030331;28;20035;-65
2021/05/09 03:26:01;;;;;;;7.30;4.45;;;12.10;99.90;;;;;;5028745;28;20037;-65
2021/05/09 03:28:27;;;;;;;9.50;4.72;;;12.10;99.90;;;;;;5025622;28;20034;-65
2021/05/09 03:30:53;;;;;;;4.80;3.97;;;12.10;99.90;;;;;;5023904;28;20083;-65
2021/05/09 03:33:18;;;;;;;4.97;4.50;;;12.00;99.90;;;;;;5025698;28;20033;-65
2021/05/09 03:35:44;;;;;;;8.75;4.75;;;12.10;99.90;;;;;;5023281;28;20480;-65
2021/05/09 03:38:10;;;;;;;7.97;4.75;;;12.20;99.90;;;;;;5023838;28;20039;-65
2021/05/09 03:40:37;;;;;;;7.20;4.05;;;12.20;99.90;;;;;;5025429;28;20045;-65
2021/05/09 03:43:03;;;;;;;10.02;4.70;;;12.10;99.90;;;;;;5026961;28;20131;-65
2021/05/09 03:45:29;;;;;;;4.93;3.92;;;12.10;99.90;;;;;;5022730;28;20065;-65
2021/05/09 03:47:54;;;;;;;5.50;4.00;;;12.10;99.90;;;;;;5022906;28;20042;-65
2021/05/09 03:50:22;;;;;;;9.35;4.05;;;12.10;99.90;;;;;;5022965;28;20053;-65
2021/05/09 03:52:48;;;;;;;6.60;3.97;;;12.10;99.90;;;;;;5024608;28;20052;-65
2021/05/09 03:55:14;;;;;;;8.73;4.20;;;12.00;99.90;;;;;;5022717;28;20045;-65
2021/05/09 03:57:40;;;;;;;9.13;4.60;;;12.00;99.90;;;;;;5023793;28;20042;-65
2021/05/09 04:00:06;;;;;;;4.57;4.15;;;11.90;99.90;;;;;;5024587;28;20095;-65
2021/05/09 04:02:34;;;;;;;9.50;5.10;;;11.90;99.90;;;;;;5021954;28;20114;-65
2021/05/09 04:05:00;;;;;;;7.65;3.80;;;12.00;99.90;;;;;;5023595;28;20218;-65
2021/05/09 04:07:26;;;;;;;9.93;4.32;;;12.00;99.90;;;;;;5024327;28;20124;-65
2021/05/09 04:09:51;;;;;;;6.75;3.95;;;11.90;99.90;;;;;;5023882;28;20042;-65
2021/05/09 04:12:18;;;;;;;6.43;4.70;;;11.90;99.90;;;;;;5024100;28;20122;-65
2021/05/09 04:14:44;;;;;;;5.60;4.10;;;12.00;99.90;;;;;;5022997;28;20165;-65
2021/05/09 04:17:09;;;;;;;9.60;4.45;;;12.00;99.90;;;;;;5023167;28;20545;-65
2021/05/09 04:19:35;;;;;;;9.60;4.10;;;12.10;99.90;;;;;;5023839;28;20127;-65
2021/05/09 04:22:02;;;;;;;6.95;4.63;;;12.00;99.90;;;;;;5022145;28;20680;-65
2021/05/09 04:24:35;;;;;;;7.65;4.15;;;12.20;99.90;;;;;;5024795;28;20048;-65
2021/05/09 04:27:01;;;;;;;11.07;4.93;;;12.30;99.90;;;;;;5024072;28;20076;-65
2021/05/09 04:29:27;;;;;;;8.18;4.10;;;12.30;99.90;;;;;;5026771;28;20163;-65
2021/05/09 04:31:52;;;;;;;6.53;4.03;;;12.50;99.90;;;;;;5024919;28;20052;-65
2021/05/09 04:34:18;;;;;;;8.80;3.75;;;12.80;99.90;;;;;;5026268;28;20065;-65
2021/05/09 04:36:45;;;;;;;6.55;4.70;;;13.10;99.90;;;;;;5024760;28;20068;-65
2021/05/09 04:39:11;;;;;;;6.75;3.40;;;13.50;99.80;;;;;;5023594;28;20064;-65
2021/05/09 04:41:37;;;;;;;6.63;3.83;;;13.80;98.90;;;;;;5023761;28;20509;-65
2021/05/09 04:44:03;;;;;;;7.57;4.03;;;13.90;98.70;;;;;;5022722;28;20048;-65
2021/05/09 04:46:29;;;;;;;9.73;3.85;;;14.00;98.40;;;;;;5023375;28;20411;-65
2021/05/09 04:48:55;;;;;;;4.53;2.75;;;14.20;98.40;;;;;;5023087;28;20040;-65
2021/05/09 04:51:20;;;;;;;6.88;3.05;;;14.50;98.20;;;;;;5024997;28;20037;-65
2021/05/09 04:53:46;;;;;;;6.15;2.92;;;14.80;97.40;;;;;;5022677;28;20079;-65
2021/05/09 04:56:12;;;;;;;6.88;3.72;;;15.10;96.30;;;;;;5023793;28;20041;-65
2021/05/09 04:58:41;;;;;;;5.57;3.15;;;15.40;95.20;;;;;;5022773;28;20399;-65
2021/05/09 05:01:08;;;;;;;7.13;3.13;;;15.60;95.10;;;;;;5021810;28;20083;-66
2021/05/09 05:03:35;;;;;;;5.10;2.95;;;15.90;94.20;;;;;;5023564;28;20113;-66
2021/05/09 05:06:01;;;;;;;7.10;3.08;;;15.80;94.40;;;;;;5019475;28;20048;-65
2021/05/09 05:08:29;;;;;;;7.13;2.50;;;16.10;94.90;;;;;;5020022;28;20038;-65
2021/05/09 05:10:55;;;;;;;6.53;3.20;;;16.80;93.40;;;;;;5021669;28;20090;-66
2021/05/09 05:13:24;;;;;;;3.50;2.63;;;17.40;91.30;;;;;;5021238;28;20099;-66
2021/05/09 05:15:55;;;;;;;4.50;2.53;;;18.10;90.50;;;;;;5022791;28;20044;-66
2021/05/09 05:18:22;;;;;;;4.22;2.25;;;18.90;86.70;;;;;;5022051;28;20136;-66
2021/05/09 05:20:49;;;;;;;5.95;2.55;;;20.00;83.20;;;;;;5022540;28;20041;-66
2021/05/09 05:23:15;;;;;;;5.13;2.00;;;20.70;80.50;;;;;;5022080;28;20182;-66
2021/05/09 05:25:41;;;;;;;3.55;2.20;;;21.20;76.70;;;;;;5021857;28;20088;-66
2021/05/09 05:28:09;;;;;;;3.38;1.95;;;21.80;76.10;;;;;;5022544;28;20067;-66
2021/05/09 05:30:36;;;;;;;6.63;2.28;;;22.30;70.00;;;;;;5020957;28;20038;-66
2021/05/09 05:33:02;;;;;;;5.47;2.28;;;23.00;69.30;;;;;;5024138;28;20037;-66
2021/05/09 05:35:29;;;;;;;3.78;2.13;;;23.40;64.70;;;;;;5024532;28;20041;-66
2021/05/09 05:37:55;;;;;;;7.95;2.25;;;23.20;60.90;;;;;;5019467;28;20440;-66
2021/05/09 05:40:23;;;;;;;5.85;2.17;;;23.30;59.90;;;;;;5020313;28;20045;-66
2021/05/09 05:42:49;;;;;;;5.32;2.20;;;23.40;63.10;;;;;;5018452;28;20033;-66
2021/05/09 05:45:16;;;;;;;3.58;2.28;;;23.70;60.80;;;;;;5022436;28;20053;-66
2021/05/09 05:47:41;;;;;;;4.90;2.63;;;24.00;59.80;;;;;;5021205;28;20049;-66
2021/05/09 05:50:08;;;;;;;3.17;2.17;;;24.10;59.10;;;;;;5022842;28;20083;-66
2021/05/09 05:52:34;;;;;;;6.07;2.40;;;23.70;59.30;;;;;;5021821;28;20046;-66
2021/05/09 05:55:00;;;;;;;5.18;2.90;;;23.20;62.20;;;;;;5020877;28;20033;-66
2021/05/09 05:57:26;;;;;;;5.35;2.50;;;22.90;63.70;;;;;;5018059;28;20052;-67
2021/05/09 05:59:52;;;;;;;3.88;2.50;;;22.40;66.80;;;;;;5020405;28;20041;-67
2021/05/09 06:02:18;;;;;;;4.45;2.35;;;22.00;68.90;;;;;;5019787;28;20545;-67
2021/05/09 06:04:43;;;;;;;5.82;2.45;;;21.80;68.20;;;;;;5018392;28;20049;-67
2021/05/09 06:07:12;;;;;;;5.28;2.85;;;21.30;71.60;;;;;;5020716;28;20048;-67
2021/05/09 06:09:38;;;;;;;5.53;2.50;;;20.90;74.20;;;;;;5022589;28;20547;-67
2021/05/09 06:12:04;;;;;;;4.00;2.25;;;20.70;77.50;;;;;;5024328;28;20042;-67
2021/05/09 06:14:30;;;;;;;3.35;2.58;;;20.70;77.50;;;;;;5022189;28;20050;-67
2021/05/09 06:16:56;;;;;;;3.75;2.47;;;20.40;78.30;;;;;;5025440;28;20099;-67
2021/05/09 06:19:22;;;;;;;4.07;2.40;;;20.20;79.00;;;;;;5025607;28;20598;-67
2021/05/09 06:21:47;;;;;;;5.65;3.03;;;20.10;79.60;;;;;;5026566;28;20041;-67
2021/05/09 06:24:13;;;;;;;6.65;3.20;;;20.00;82.10;;;;;;5025520;28;20045;-67
2021/05/09 06:26:39;;;;;;;4.85;2.60;;;19.80;81.50;;;;;;5026529;28;20041;-67
2021/05/09 06:29:05;;;;;;;4.20;3.33;;;19.60;81.90;;;;;;5026004;28;20037;-67
2021/05/09 06:31:31;;;;;;;6.80;3.22;;;19.50;85.30;;;;;;5025344;28;20521;-67
2021/05/09 06:33:56;;;;;;;5.63;2.70;;;19.60;85.20;;;;;;5027008;28;20037;-67
2021/05/09 06:36:22;;;;;;;5.40;3.40;;;19.50;82.80;;;;;;5025936;28;20045;-67
2021/05/09 06:38:48;;;;;;;3.53;3.20;;;19.50;85.40;;;;;;5026729;28;20042;-67
2021/05/09 06:41:14;;;;;;;8.05;3.50;;;19.30;85.30;;;;;;5026380;28;20092;-67
2021/05/09 06:43:40;;;;;;;6.18;3.05;;;19.30;85.00;;;;;;5026597;28;20096;-67
2021/05/09 06:46:06;;;;;;;4.85;3.25;;;19.20;85.70;;;;;;5024125;28;20669;-67
2021/05/09 06:48:32;;;;;;;6.75;3.25;;;19.10;87.10;;;;;;5026086;28;20045;-67
2021/05/09 06:50:58;;;;;;;5.15;2.95;;;19.10;87.90;;;;;;5027006;28;20037;-67
2021/05/09 06:53:24;;;;;;;6.10;3.10;;;19.30;87.40;;;;;;5026248;28;20046;-67
2021/05/09 06:55:51;;;;;;;5.35;3.17;;;19.30;86.90;;;;;;5025468;28;20049;-67
2021/05/09 06:58:20;;;;;;;4.53;2.65;;;19.30;87.10;;;;;;5025277;28;20045;-67
2021/05/09 07:00:47;;;;;;;5.65;2.83;;;19.30;87.30;;;;;;5023862;28;20116;-67
2021/05/09 07:03:12;;;;;;;6.95;3.20;;;19.30;88.10;;;;;;5025124;28;20069;-67
2021/05/09 07:05:38;;;;;;;5.70;3.50;;;19.40;87.20;;;;;;5024946;28;20112;-67
2021/05/09 07:08:04;;;;;;;6.22;3.72;;;19.50;85.70;;;;;;5025451;28;20721;-67
2021/05/09 07:10:33;;;;;;;6.43;2.95;;;19.50;86.70;;;;;;5023364;28;20049;-67
2021/05/09 07:12:59;;;;;;;11.18;3.78;;;19.40;87.30;;;;;;5025292;28;20498;-67
2021/05/09 07:15:30;;;;;;;6.13;3.78;;;19.30;87.20;;;;;;5024812;28;20566;-67
2021/05/09 07:18:15;;;;;;;7.75;3.95;;;19.40;87.20;;;;;;5023934;28;20484;-67
2021/05/09 07:20:46;;;;;;;7.90;3.60;;;19.40;86.60;;;;;;5023654;28;20045;-67
2021/05/09 07:23:14;;;;;;;6.72;3.58;;;19.20;88.30;;;;;;5025509;28;20049;-67
2021/05/09 07:25:40;;;;;;;10.05;3.22;;;19.20;87.90;;;;;;5026282;28;20034;-67
2021/05/09 07:28:11;;;;;;;4.72;3.08;;;19.20;88.00;;;;;;5025741;28;20159;-67
2021/05/09 07:30:38;;;;;;;5.78;3.13;;;19.20;88.20;;;;;;5024726;28;20484;-67
2021/05/09 07:33:05;;;;;;;5.07;3.20;;;19.20;88.30;;;;;;5025712;28;20037;-67
2021/05/09 07:35:31;;;;;;;9.07;3.28;;;19.20;86.50;;;;;;5025779;28;20749;-67
2021/05/09 07:38:01;;;;;;;6.57;3.70;;;19.10;87.80;;;;;;5025084;28;20037;-67
2021/05/09 07:40:36;;;;;;;6.72;3.63;;;19.00;88.70;;;;;;5023492;28;20053;-67
2021/05/09 07:43:04;;;;;;;4.43;3.35;;;19.00;89.60;;;;;;5022501;28;20082;-67
2021/05/09 07:45:29;;;;;;;7.47;3.70;;;19.00;89.10;;;;;;5026061;28;20041;-67
2021/05/09 07:47:55;;;;;;;6.13;3.65;;;19.00;90.30;;;;;;5022770;28;20653;-67
2021/05/09 07:50:21;;;;;;;5.28;3.63;;;19.00;88.40;;;;;;5025231;28;20094;-67
2021/05/09 07:52:49;;;;;;;10.65;3.67;;;19.10;89.10;;;;;;5038770;28;20401;-67
2021/05/09 07:55:16;;;;;;;10.10;3.67;;;19.00;89.40;;;;;;5026211;28;20041;-67
2021/05/09 07:57:43;;;;;;;4.88;3.40;;;19.10;88.90;;;;;;5025113;28;20128;-67
2021/05/09 08:00:13;;;;;;;5.28;3.17;;;19.30;90.00;;;;;;5023236;28;20041;-67
2021/05/09 08:02:43;;;;;;;5.35;3.13;;;19.40;89.10;;;;;;5022989;28;20056;-67
2021/05/09 08:05:10;;;;;;;13.45;2.90;;;19.50;87.60;;;;;;5025171;28;20114;-67
2021/05/09 08:07:46;;;;;;;5.80;3.17;;;19.50;87.40;;;;;;5024849;28;20037;-67
2021/05/09 08:10:12;;;;;;;6.03;3.63;;;19.60;87.20;;;;;;5025176;28;20182;-67
2021/05/09 08:12:38;;;;;;;5.65;2.35;;;19.70;88.30;;;;;;5024817;28;20638;-67
2021/05/09 08:15:04;;;;;;;4.07;2.40;;;19.80;87.60;;;;;;5023981;28;20049;-67
2021/05/09 08:17:30;;;;;;;4.55;2.55;;;20.00;87.50;;;;;;5025024;28;20041;-67
2021/05/09 08:19:56;;;;;;;5.13;2.22;;;20.10;87.20;;;;;;5023103;28;20110;-67
2021/05/09 08:22:22;;;;;;;6.13;2.30;;;20.20;87.40;;;;;;5022913;28;20088;-67
2021/05/09 08:24:48;;;;;;;3.67;2.15;;;20.30;84.40;;;;;;5025323;28;20370;-67
2021/05/09 08:27:13;;;;;;;4.68;2.42;;;20.40;83.70;;;;;;5022815;28;20140;-67
2021/05/09 08:29:39;;;;;;;4.80;2.50;;;20.50;83.80;;;;;;5024970;28;20492;-67
2021/05/09 08:32:05;;;;;;;7.57;2.78;;;20.60;82.70;;;;;;5023170;28;20037;-67
2021/05/09 08:34:30;;;;;;;7.57;2.97;;;20.80;86.10;;;;;;5022717;28;20046;-67
2021/05/09 08:36:56;;;;;;;4.85;2.13;;;21.00;82.10;;;;;;5024427;28;20152;-67
2021/05/09 08:39:22;;;;;;;4.63;2.10;;;21.10;81.60;;;;;;5023653;28;20049;-67
2021/05/09 08:41:48;;;;;;;6.57;2.40;;;21.20;80.80;;;;;;5025016;28;20052;-67
2021/05/09 08:44:14;;;;;;;7.25;2.20;;;21.40;81.20;;;;;;5024834;28;20090;-67
2021/05/09 08:46:44;;;;;;;3.55;2.28;;;21.50;80.30;;;;;;5023383;28;20038;-67
2021/05/09 08:49:14;;;;;;;6.30;1.58;;;21.60;80.60;;;;;;5023520;28;20415;-67
2021/05/09 08:51:40;;;;;;;4.60;2.00;;;21.70;80.50;;;;;;5023085;28;20038;-67
2021/05/09 08:54:06;;;;;;;4.13;1.80;;;21.70;80.80;;;;;;5021448;28;20502;-67
2021/05/09 08:56:32;;;;;;;2.85;1.67;;;21.80;81.50;;;;;;5021253;28;20045;-67
2021/05/09 08:58:58;;;;;;;3.58;1.70;;;21.90;79.20;;;;;;5023859;28;20041;-67
2021/05/09 09:01:31;;;;;;;3.15;1.60;;;22.10;77.50;;;;;;5024632;28;20065;-67
2021/05/09 09:03:57;;;;;;;5.28;1.75;;;22.10;75.20;;;;;;5022152;28;20665;-67
2021/05/09 09:07:01;;;;;;;2.55;1.60;;;22.20;75.70;;;;;;5022826;28;20037;-67
2021/05/09 09:09:26;;;;;;;2.85;1.60;;;22.40;79.40;;;;;;5002281;28;20973;-67
2021/05/09 09:11:56;;;;;;;3.13;1.38;;;22.60;77.40;;;;;;5016724;28;20088;-67
2021/05/09 09:14:27;;;;;;;3.83;1.60;;;22.70;75.40;;;;;;5021638;28;20039;-67
2021/05/09 09:17:15;;;;;;;3.92;1.75;;;22.70;75.50;;;;;;5022155;28;20033;-67
2021/05/09 09:20:08;;;;;;;2.17;1.50;;;22.50;72.80;;;;;;5024079;28;20088;-67
2021/05/09 09:22:57;;;;;;;4.72;1.38;;;22.20;74.70;;;;;;5021971;28;20067;-67
2021/05/09 09:25:28;;;;;;;2.40;1.42;;;21.90;76.40;;;;;;5020973;28;21326;-67
2021/05/09 09:27:55;;;;;;;4.07;1.52;;;21.60;80.50;;;;;;5021519;28;20066;-67
2021/05/09 09:30:23;;;;;;;5.45;1.67;;;21.50;82.70;;;;;;5023070;28;20041;-67
2021/05/09 09:33:14;;;;;;;3.85;1.60;;;21.40;83.50;;;;;;5024438;28;20073;-67
2021/05/09 09:35:42;;;;;;;1.13;0.98;;;21.20;83.70;;;;;;5022095;28;20040;-67
2021/05/09 09:38:26;;;;;;;5.30;1.00;;;21.10;84.40;;;;;;5022593;28;20069;-67
2021/05/09 09:41:19;;;;;;;3.30;1.15;;;21.00;85.40;;;;;;5022500;28;20052;-67
2021/05/09 09:44:07;;;;;;;3.22;1.30;;;20.80;84.80;;;;;;5021232;28;20038;-67
2021/05/09 09:46:49;;;;;;;3.03;1.88;;;20.70;86.30;;;;;;5021833;28;21038;-67
2021/05/09 09:49:30;;;;;;;6.32;2.30;;;20.60;87.80;;;;;;5023090;28;20045;-67
2021/05/09 09:52:02;;;;;;;3.20;1.90;;;20.50;90.50;;;;;;5023582;28;20034;-67
2021/05/09 09:54:36;;;;;;;3.00;1.73;;;20.30;91.60;;;;;;5019955;28;20656;-67
2021/05/09 09:57:25;;;;;;;5.43;2.13;;;20.30;92.80;;;;;;5022667;28;20044;-67
2021/05/09 10:00:05;;;;;;;3.30;1.90;;;20.60;92.70;;;;;;5022794;28;20541;-67
2021/05/09 10:02:32;;;;;;;3.00;1.65;;;20.90;90.70;;;;;;5023160;28;20048;-67
2021/05/09 10:04:58;;;;;;;6.00;1.63;;;21.20;90.10;;;;;;5023039;28;20034;-67
2021/05/09 10:07:26;;;;;;;3.78;1.77;;;21.20;90.00;;;;;;5022255;28;20479;-67
2021/05/09 10:09:54;;;;;;;1.98;1.50;;;21.40;90.20;;;;;;5021117;28;20049;-67
2021/05/09 10:12:20;;;;;;;4.50;2.25;;;21.40;88.50;;;;;;5022651;28;20096;-67
2021/05/09 10:14:46;;;;;;;3.40;2.25;;;21.30;89.20;;;;;;5020324;28;20042;-67
2021/05/09 10:17:12;;;;;;;4.03;2.40;;;21.10;87.10;;;;;;5022814;28;20041;-67
2021/05/09 10:19:38;;;;;;;3.53;1.80;;;21.30;87.30;;;;;;5024187;28;20568;-67
2021/05/09 10:22:23;;;;;;;1.90;1.08;;;21.40;87.50;;;;;;5022863;28;20115;-67
2021/05/09 10:24:49;;;;;;;3.42;1.23;;;21.60;86.30;;;;;;5021176;28;20083;-67
2021/05/09 10:27:14;;;;;;;2.85;1.40;;;21.60;85.50;;;;;;5021537;28;20046;-67
2021/05/09 10:29:45;;;;;;;4.03;1.33;;;21.40;85.60;;;;;;5022809;28;20057;-67
2021/05/09 10:32:23;;;;;;;2.88;1.15;;;21.40;86.40;;;;;;5025980;28;20041;-67
2021/05/09 10:37:38;;;;;;;4.05;1.95;;;21.50;84.90;;;;;;5028106;28;20042;-67
2021/05/09 10:40:22;;;;;;;5.88;1.40;;;21.50;83.00;;;;;;5027681;28;20041;-67
2021/05/09 10:43:01;;;;;;;5.60;1.88;;;21.70;84.90;;;;;;5024863;28;20061;-67
2021/05/09 10:45:35;;;;;;;2.33;1.25;;;21.70;85.90;;;;;;5025852;28;20112;-67
2021/05/09 10:48:13;;;;;;;4.22;1.50;;;21.80;87.10;;;;;;5028340;28;20207;-67
2021/05/09 10:50:56;;;;;;;6.85;1.98;;;21.80;87.90;;;;;;5027558;28;20046;-67
2021/05/09 10:53:38;;;;;;;2.17;1.23;;;21.90;83.90;;;;;;5026274;28;20557;-67
2021/05/09 10:56:04;;;;;;;3.22;1.23;;;22.20;85.00;;;;;;5029917;28;20041;-67
2021/05/09 10:58:39;;;;;;;2.78;1.00;;;22.50;85.10;;;;;;5032139;28;20094;-67
2021/05/09 11:01:08;;;;;;;4.57;1.00;;;22.80;84.40;;;;;;5030370;28;20067;-67
2021/05/09 11:03:40;;;;;;;2.20;0.70;;;23.20;76.70;;;;;;5031937;28;20045;-67
2021/05/09 11:06:11;;;;;;;2.67;0.55;;;23.40;75.50;;;;;;5030975;28;20037;-67
2021/05/09 11:08:42;;;;;;;2.08;0.52;;;23.40;72.40;;;;;;5031541;28;20459;-67
2021/05/09 11:11:35;;;;;;;3.53;0.88;;;23.60;72.50;;;;;;5031112;28;20640;-67
2021/05/09 11:16:37;;;;;;;6.97;0.68;;;24.10;70.50;;;;;;5031029;28;20036;-67
2021/05/09 11:19:12;;;;;;;2.83;0.98;;;24.20;71.20;;;;;;5030342;28;20042;-67
2021/05/09 11:21:45;;;;;;;3.05;0.80;;;24.20;68.40;;;;;;5030741;28;20048;-67
2021/05/09 11:24:19;;;;;;;1.95;0.60;;;24.10;70.70;;;;;;5031543;28;20131;-67
2021/05/09 11:26:50;;;;;;;1.27;0.50;;;24.00;68.90;;;;;;5030521;28;20065;-67
2021/05/09 11:29:18;;;;;;;2.13;0.75;;;24.00;68.80;;;;;;5031176;28;20039;-67
2021/05/09 11:31:49;;;;;;;2.72;0.85;;;24.00;70.30;;;;;;5029035;28;20088;-67
2021/05/09 11:34:16;;;;;;;2.50;0.50;;;23.90;61.30;;;;;;5030275;28;20116;-67
2021/05/09 11:36:46;;;;;;;3.55;0.77;;;23.90;61.40;;;;;;5029764;28;20061;-69
2021/05/09 11:39:17;;;;;;;3.05;0.80;;;24.10;59.70;;;;;;5030013;28;20408;-67
2021/05/09 11:41:51;;;;;;;3.03;0.63;;;24.20;64.20;;;;;;5023093;28;20045;-67
2021/05/09 11:44:18;;;;;;;3.38;0.77;;;24.40;66.40;;;;;;5024897;28;20993;-67
2021/05/09 11:46:43;;;;;;;1.27;0.50;;;24.50;63.90;;;;;;5022171;28;20451;-67
2021/05/09 11:49:25;;;;;;;4.40;0.95;;;24.60;62.50;;;;;;5024016;28;20120;-67
2021/05/09 11:51:59;;;;;;;3.22;0.85;;;24.40;60.90;;;;;;5023540;28;20446;-67
2021/05/09 11:54:26;;;;;;;0.80;0.50;;;24.40;65.60;;;;;;5023333;28;20426;-67
2021/05/09 11:57:00;;;;;;;2.58;0.93;;;24.60;68.20;;;;;;5023205;28;20045;-67
2021/05/09 11:59:34;;;;;;;0.80;0.57;;;24.80;63.30;;;;;;5024912;28;20032;-67
2021/05/09 12:02:20;;;;;;;1.98;1.10;;;24.90;63.90;;;;;;5023795;28;20125;-67
2021/05/09 12:04:50;;;;;;;4.43;0.55;;;25.20;60.80;;;;;;5022469;28;20037;-67
2021/05/09 12:07:21;;;;;;;2.45;0.68;;;25.60;59.10;;;;;;5023099;28;20123;-68
2021/05/09 12:09:52;;;;;;;1.33;0.70;;;25.70;57.30;;;;;;5024582;28;20091;-67
2021/05/09 12:12:20;;;;;;;3.35;0.85;;;25.80;59.60;;;;;;5025054;28;20042;-67
2021/05/09 12:14:47;;;;;;;2.08;0.95;;;25.70;61.00;;;;;;5026785;28;20412;-67
2021/05/09 12:17:20;;;;;;;1.65;0.70;;;25.70;59.50;;;;;;5028514;28;20388;-66
2021/05/09 12:19:46;;;;;;;3.05;0.60;;;25.70;58.80;;;;;;5028136;28;20391;-67
2021/05/09 12:22:12;;;;;;;1.00;0.47;;;25.70;58.10;;;;;;5029224;28;20038;-67
2021/05/09 12:24:57;;;;;;;4.15;0.90;;;25.50;61.50;;;;;;5031185;28;20049;-67
2021/05/09 12:27:26;;;;;;;3.00;0.90;;;25.30;59.60;;;;;;5027205;28;20091;-68
2021/05/09 12:29:54;;;;;;;4.75;0.90;;;25.20;60.20;;;;;;5029364;28;20048;-68
2021/05/09 12:32:30;;;;;;;2.13;0.80;;;25.00;58.10;;;;;;5029477;28;20500;-67
2021/05/09 12:35:09;;;;;;;4.72;1.35;;;24.80;60.50;;;;;;5027865;28;20385;-67
2021/05/09 12:37:55;;;;;;;4.47;1.05;;;24.70;61.40;;;;;;5028949;28;20492;-67
2021/05/09 12:40:21;;;;;;;1.27;0.75;;;24.60;61.90;;;;;;5019062;28;20131;-67
2021/05/09 12:42:55;;;;;;;1.58;0.80;;;24.50;62.40;;;;;;5028378;28;20038;-67
2021/05/09 12:45:36;;;;;;;2.50;1.00;;;24.30;64.40;;;;;;5028709;28;20112;-67
2021/05/09 12:48:03;;;;;;;2.75;1.23;;;24.20;67.60;;;;;;5027321;28;20037;-67
2021/05/09 12:50:51;;;;;;;1.05;0.80;;;24.10;65.00;;;;;;5025202;28;20049;-67
2021/05/09 12:53:38;;;;;;;2.90;0.65;;;24.10;67.90;;;;;;5026861;28;20460;-67
2021/05/09 12:56:26;;;;;;;2.35;1.00;;;23.90;66.90;;;;;;5030290;28;20038;-67
2021/05/09 12:59:15;;;;;;;4.15;0.77;;;23.80;68.30;;;;;;5027617;28;20045;-67